Selma, North Carolina
Current Conditions -  °F | °C
As of 12:15 PM on Saturday 20 Dec 2014 (Local Time) from KJNX Reporting Station
Moderate Rain Moderate Rain  
Wind Chill: 30°   Ceiling: 6000
Heat Index: 36°   Visibility: 10mi
Dew Point: 34°   Wind: 7mph
Humidity: 93%   Direction: 30°NNE
Pressure: 30.28"   Gusts: NA
Location:  35.54°N, 78.28°W
Report Text: KJNX 201715Z AUTO 03006KT 10SM RA SCT046 SCT050 OVC060 02/01 A3028 RMK AO2
Loading
Personal Weather Stations






























Interactive Weather Map New forecast layout! Learn more

10-Day Weather Forecast

Advertisements
Track Severe Weather on mobile